sensor_id;sensor_type;location;lat;lon;timestamp;temperature;humidity
3418;DHT22;68007;51.312;12.372;2024-03-29T00:01:34;10.60;72.80
3418;DHT22;68007;51.312;12.372;2024-03-29T00:04:02;10.60;72.60
3418;DHT22;68007;51.312;12.372;2024-03-29T00:06:29;10.60;72.90
3418;DHT22;68007;51.312;12.372;2024-03-29T00:08:55;10.60;72.60
3418;DHT22;68007;51.312;12.372;2024-03-29T00:11:23;10.60;72.70
3418;DHT22;68007;51.312;12.372;2024-03-29T00:13:49;10.60;72.40
3418;DHT22;68007;51.312;12.372;2024-03-29T00:16:16;10.60;72.60
3418;DHT22;68007;51.312;12.372;2024-03-29T00:18:42;10.70;72.70
3418;DHT22;68007;51.312;12.372;2024-03-29T00:21:10;10.70;72.50
3418;DHT22;68007;51.312;12.372;2024-03-29T00:23:37;10.70;72.30
3418;DHT22;68007;51.312;12.372;2024-03-29T00:26:03;10.70;72.50
3418;DHT22;68007;51.312;12.372;2024-03-29T00:28:30;10.80;72.20
3418;DHT22;68007;51.312;12.372;2024-03-29T00:30:57;10.80;72.00
3418;DHT22;68007;51.312;12.372;2024-03-29T00:33:23;10.80;72.30
3418;DHT22;68007;51.312;12.372;2024-03-29T00:35:50;10.90;72.10
3418;DHT22;68007;51.312;12.372;2024-03-29T00:38:18;11.00;72.00
3418;DHT22;68007;51.312;12.372;2024-03-29T00:40:45;11.10;71.60
3418;DHT22;68007;51.312;12.372;2024-03-29T00:43:11;11.00;71.40
3418;DHT22;68007;51.312;12.372;2024-03-29T00:45:38;11.10;71.20
3418;DHT22;68007;51.312;12.372;2024-03-29T00:48:05;11.10;71.20
3418;DHT22;68007;51.312;12.372;2024-03-29T00:50:31;11.10;71.10
3418;DHT22;68007;51.312;12.372;2024-03-29T00:52:58;11.10;71.40
3418;DHT22;68007;51.312;12.372;2024-03-29T00:55:26;11.10;71.30
3418;DHT22;68007;51.312;12.372;2024-03-29T00:57:52;11.10;70.90
3418;DHT22;68007;51.312;12.372;2024-03-29T01:00:19;11.10;70.80
3418;DHT22;68007;51.312;12.372;2024-03-29T01:02:46;11.10;70.90
3418;DHT22;68007;51.312;12.372;2024-03-29T01:05:12;11.10;71.00
3418;DHT22;68007;51.312;12.372;2024-03-29T01:07:40;11.10;70.80
3418;DHT22;68007;51.312;12.372;2024-03-29T01:10:07;11.10;70.80
3418;DHT22;68007;51.312;12.372;2024-03-29T01:12:35;11.10;70.70
3418;DHT22;68007;51.312;12.372;2024-03-29T01:15:02;11.10;70.60
3418;DHT22;68007;51.312;12.372;2024-03-29T01:17:29;11.20;70.70
3418;DHT22;68007;51.312;12.372;2024-03-29T01:19:55;11.20;70.50
3418;DHT22;68007;51.312;12.372;2024-03-29T01:22:22;11.10;70.20
3418;DHT22;68007;51.312;12.372;2024-03-29T01:24:49;11.10;70.40
3418;DHT22;68007;51.312;12.372;2024-03-29T01:27:15;11.10;70.40
3418;DHT22;68007;51.312;12.372;2024-03-29T01:29:43;11.10;70.10
3418;DHT22;68007;51.312;12.372;2024-03-29T01:32:10;11.00;70.30
3418;DHT22;68007;51.312;12.372;2024-03-29T01:34:37;11.00;70.40
3418;DHT22;68007;51.312;12.372;2024-03-29T01:37:04;11.00;70.50
3418;DHT22;68007;51.312;12.372;2024-03-29T01:39:30;11.10;70.70
3418;DHT22;68007;51.312;12.372;2024-03-29T01:41:57;11.10;70.40
3418;DHT22;68007;51.312;12.372;2024-03-29T01:44:23;11.10;70.60
3418;DHT22;68007;51.312;12.372;2024-03-29T01:46:52;11.10;70.00
3418;DHT22;68007;51.312;12.372;2024-03-29T01:49:20;11.00;70.20
3418;DHT22;68007;51.312;12.372;2024-03-29T01:51:46;11.00;70.50
3418;DHT22;68007;51.312;12.372;2024-03-29T01:54:14;10.90;70.20
3418;DHT22;68007;51.312;12.372;2024-03-29T01:56:42;10.80;70.10
3418;DHT22;68007;51.312;12.372;2024-03-29T01:59:13;10.80;70.40
3418;DHT22;68007;51.312;12.372;2024-03-29T02:01:41;10.80;70.60
3418;DHT22;68007;51.312;12.372;2024-03-29T02:04:10;10.80;70.70
3418;DHT22;68007;51.312;12.372;2024-03-29T02:06:38;10.80;70.30
3418;DHT22;68007;51.312;12.372;2024-03-29T02:09:06;10.80;70.30
3418;DHT22;68007;51.312;12.372;2024-03-29T02:11:34;10.70;70.50
3418;DHT22;68007;51.312;12.372;2024-03-29T02:14:03;10.70;70.60
3418;DHT22;68007;51.312;12.372;2024-03-29T02:16:32;10.70;70.50
3418;DHT22;68007;51.312;12.372;2024-03-29T02:18:59;10.70;70.80
3418;DHT22;68007;51.312;12.372;2024-03-29T02:21:28;10.70;70.40
3418;DHT22;68007;51.312;12.372;2024-03-29T02:24:00;10.60;70.50
3418;DHT22;68007;51.312;12.372;2024-03-29T02:26:28;10.60;70.80
3418;DHT22;68007;51.312;12.372;2024-03-29T02:28:59;10.60;70.90
3418;DHT22;68007;51.312;12.372;2024-03-29T02:31:26;10.60;70.80
3418;DHT22;68007;51.312;12.372;2024-03-29T02:33:54;10.60;70.70
3418;DHT22;68007;51.312;12.372;2024-03-29T02:36:21;10.60;70.90
3418;DHT22;68007;51.312;12.372;2024-03-29T02:38:49;10.50;70.80
3418;DHT22;68007;51.312;12.372;2024-03-29T02:41:18;10.50;71.00
3418;DHT22;68007;51.312;12.372;2024-03-29T02:43:45;10.50;70.80
3418;DHT22;68007;51.312;12.372;2024-03-29T02:46:13;10.40;71.00
3418;DHT22;68007;51.312;12.372;2024-03-29T02:48:40;10.40;71.20
3418;DHT22;68007;51.312;12.372;2024-03-29T02:51:07;10.30;71.20
3418;DHT22;68007;51.312;12.372;2024-03-29T02:53:35;10.20;71.50
3418;DHT22;68007;51.312;12.372;2024-03-29T02:56:01;10.20;71.70
3418;DHT22;68007;51.312;12.372;2024-03-29T02:58:30;10.10;71.60
3418;DHT22;68007;51.312;12.372;2024-03-29T03:01:05;10.20;71.80
3418;DHT22;68007;51.312;12.372;2024-03-29T03:03:31;10.20;71.80
3418;DHT22;68007;51.312;12.372;2024-03-29T03:05:59;10.30;71.80
3418;DHT22;68007;51.312;12.372;2024-03-29T03:08:26;10.30;71.50
3418;DHT22;68007;51.312;12.372;2024-03-29T03:11:11;10.30;71.30
3418;DHT22;68007;51.312;12.372;2024-03-29T03:13:39;10.30;71.60
3418;DHT22;68007;51.312;12.372;2024-03-29T03:16:07;10.40;71.50
3418;DHT22;68007;51.312;12.372;2024-03-29T03:18:34;10.40;71.30
3418;DHT22;68007;51.312;12.372;2024-03-29T03:21:01;10.50;71.30
3418;DHT22;68007;51.312;12.372;2024-03-29T03:23:29;10.60;71.20
3418;DHT22;68007;51.312;12.372;2024-03-29T03:25:56;10.60;71.10
3418;DHT22;68007;51.312;12.372;2024-03-29T03:28:24;10.70;71.70
3418;DHT22;68007;51.312;12.372;2024-03-29T03:30:53;10.70;70.80
3418;DHT22;68007;51.312;12.372;2024-03-29T03:33:20;10.80;70.80
3418;DHT22;68007;51.312;12.372;2024-03-29T03:35:48;10.80;70.40
3418;DHT22;68007;51.312;12.372;2024-03-29T03:38:14;10.80;70.50
3418;DHT22;68007;51.312;12.372;2024-03-29T03:40:42;10.90;70.40
3418;DHT22;68007;51.312;12.372;2024-03-29T03:43:09;10.90;70.30
3418;DHT22;68007;51.312;12.372;2024-03-29T03:45:38;10.90;70.30
3418;DHT22;68007;51.312;12.372;2024-03-29T03:48:08;11.00;70.20
3418;DHT22;68007;51.312;12.372;2024-03-29T03:50:37;11.00;70.10
3418;DHT22;68007;51.312;12.372;2024-03-29T03:53:04;10.90;69.90
3418;DHT22;68007;51.312;12.372;2024-03-29T03:55:35;10.90;69.80
3418;DHT22;68007;51.312;12.372;2024-03-29T03:58:02;10.90;70.10
3418;DHT22;68007;51.312;12.372;2024-03-29T04:00:30;10.90;70.10
3418;DHT22;68007;51.312;12.372;2024-03-29T04:02:56;10.90;70.10
3418;DHT22;68007;51.312;12.372;2024-03-29T04:05:25;10.90;70.00
3418;DHT22;68007;51.312;12.372;2024-03-29T04:07:52;11.00;70.10
3418;DHT22;68007;51.312;12.372;2024-03-29T04:10:20;11.00;69.90
3418;DHT22;68007;51.312;12.372;2024-03-29T04:12:46;11.00;69.90
3418;DHT22;68007;51.312;12.372;2024-03-29T04:15:14;11.00;69.80
3418;DHT22;68007;51.312;12.372;2024-03-29T04:17:40;10.90;69.40
3418;DHT22;68007;51.312;12.372;2024-03-29T04:20:09;10.80;69.40
3418;DHT22;68007;51.312;12.372;2024-03-29T04:22:36;10.70;69.60
3418;DHT22;68007;51.312;12.372;2024-03-29T04:25:04;10.70;69.90
3418;DHT22;68007;51.312;12.372;2024-03-29T04:27:31;10.70;69.90
3418;DHT22;68007;51.312;12.372;2024-03-29T04:29:59;10.80;70.10
3418;DHT22;68007;51.312;12.372;2024-03-29T04:32:25;10.70;69.70
3418;DHT22;68007;51.312;12.372;2024-03-29T04:34:53;10.70;69.70
3418;DHT22;68007;51.312;12.372;2024-03-29T04:37:19;10.70;69.80
3418;DHT22;68007;51.312;12.372;2024-03-29T04:39:48;10.70;70.00
3418;DHT22;68007;51.312;12.372;2024-03-29T04:42:16;10.70;69.90
3418;DHT22;68007;51.312;12.372;2024-03-29T04:44:43;10.70;70.00
3418;DHT22;68007;51.312;12.372;2024-03-29T04:47:11;10.80;70.10
3418;DHT22;68007;51.312;12.372;2024-03-29T04:49:38;10.90;70.00
3418;DHT22;68007;51.312;12.372;2024-03-29T04:52:06;10.90;69.90
3418;DHT22;68007;51.312;12.372;2024-03-29T04:54:34;10.90;69.80
3418;DHT22;68007;51.312;12.372;2024-03-29T04:57:03;11.00;69.80
3418;DHT22;68007;51.312;12.372;2024-03-29T04:59:32;11.00;69.70
3418;DHT22;68007;51.312;12.372;2024-03-29T05:02:00;11.00;69.70
3418;DHT22;68007;51.312;12.372;2024-03-29T05:04:28;11.00;69.70
3418;DHT22;68007;51.312;12.372;2024-03-29T05:06:56;11.00;69.40
3418;DHT22;68007;51.312;12.372;2024-03-29T05:09:24;11.00;69.60
3418;DHT22;68007;51.312;12.372;2024-03-29T05:11:52;11.00;69.60
3418;DHT22;68007;51.312;12.372;2024-03-29T05:14:21;10.90;69.60
3418;DHT22;68007;51.312;12.372;2024-03-29T05:16:50;10.90;70.50
3418;DHT22;68007;51.312;12.372;2024-03-29T05:19:17;10.90;69.90
3418;DHT22;68007;51.312;12.372;2024-03-29T05:21:45;11.00;69.90
3418;DHT22;68007;51.312;12.372;2024-03-29T05:24:12;11.00;69.90
3418;DHT22;68007;51.312;12.372;2024-03-29T05:26:40;11.00;69.80
3418;DHT22;68007;51.312;12.372;2024-03-29T05:29:07;11.00;69.60
3418;DHT22;68007;51.312;12.372;2024-03-29T05:31:36;11.00;69.60
3418;DHT22;68007;51.312;12.372;2024-03-29T05:34:04;11.10;69.60
3418;DHT22;68007;51.312;12.372;2024-03-29T05:36:31;11.00;69.50
3418;DHT22;68007;51.312;12.372;2024-03-29T05:38:59;10.90;69.40
3418;DHT22;68007;51.312;12.372;2024-03-29T05:41:26;10.80;69.30
3418;DHT22;68007;51.312;12.372;2024-03-29T05:43:54;10.80;69.60
3418;DHT22;68007;51.312;12.372;2024-03-29T05:46:21;10.70;69.40
3418;DHT22;68007;51.312;12.372;2024-03-29T05:48:50;10.60;69.70
3418;DHT22;68007;51.312;12.372;2024-03-29T05:51:17;10.60;69.90
3418;DHT22;68007;51.312;12.372;2024-03-29T05:53:45;10.60;69.50
3418;DHT22;68007;51.312;12.372;2024-03-29T05:56:13;10.50;69.90
3418;DHT22;68007;51.312;12.372;2024-03-29T05:58:40;10.60;69.90
3418;DHT22;68007;51.312;12.372;2024-03-29T06:01:08;10.60;69.80
3418;DHT22;68007;51.312;12.372;2024-03-29T06:03:35;10.70;69.80
3418;DHT22;68007;51.312;12.372;2024-03-29T06:06:05;10.70;69.50
3418;DHT22;68007;51.312;12.372;2024-03-29T06:08:33;10.70;69.30
3418;DHT22;68007;51.312;12.372;2024-03-29T06:11:00;10.60;69.40
3418;DHT22;68007;51.312;12.372;2024-03-29T06:13:28;10.60;69.50
3418;DHT22;68007;51.312;12.372;2024-03-29T06:16:16;10.60;69.60
3418;DHT22;68007;51.312;12.372;2024-03-29T06:19:01;10.60;69.60
3418;DHT22;68007;51.312;12.372;2024-03-29T06:21:30;10.70;69.80
3418;DHT22;68007;51.312;12.372;2024-03-29T06:24:05;10.80;69.70
3418;DHT22;68007;51.312;12.372;2024-03-29T06:26:33;10.80;69.60
3418;DHT22;68007;51.312;12.372;2024-03-29T06:29:01;10.80;69.30
3418;DHT22;68007;51.312;12.372;2024-03-29T06:31:29;10.70;69.30
3418;DHT22;68007;51.312;12.372;2024-03-29T06:33:57;10.70;69.30
3418;DHT22;68007;51.312;12.372;2024-03-29T06:36:25;10.70;69.30
3418;DHT22;68007;51.312;12.372;2024-03-29T06:38:54;10.60;69.50
3418;DHT22;68007;51.312;12.372;2024-03-29T06:41:22;10.60;69.60
3418;DHT22;68007;51.312;12.372;2024-03-29T06:43:49;10.60;69.80
3418;DHT22;68007;51.312;12.372;2024-03-29T06:46:17;10.60;69.90
3418;DHT22;68007;51.312;12.372;2024-03-29T06:48:44;10.60;69.90
3418;DHT22;68007;51.312;12.372;2024-03-29T06:51:12;10.60;69.80
3418;DHT22;68007;51.312;12.372;2024-03-29T06:53:39;10.70;69.90
3418;DHT22;68007;51.312;12.372;2024-03-29T06:56:08;10.70;69.80
3418;DHT22;68007;51.312;12.372;2024-03-29T06:58:36;10.70;69.70
3418;DHT22;68007;51.312;12.372;2024-03-29T07:01:03;10.80;69.70
3418;DHT22;68007;51.312;12.372;2024-03-29T07:03:31;10.80;69.60
3418;DHT22;68007;51.312;12.372;2024-03-29T07:05:58;10.80;69.50
3418;DHT22;68007;51.312;12.372;2024-03-29T07:08:26;10.80;69.40
3418;DHT22;68007;51.312;12.372;2024-03-29T07:11:00;10.80;69.50
3418;DHT22;68007;51.312;12.372;2024-03-29T07:13:29;10.80;69.50
3418;DHT22;68007;51.312;12.372;2024-03-29T07:15:57;10.80;69.50
3418;DHT22;68007;51.312;12.372;2024-03-29T07:18:28;10.90;69.50
3418;DHT22;68007;51.312;12.372;2024-03-29T07:20:55;10.90;69.40
3418;DHT22;68007;51.312;12.372;2024-03-29T07:23:23;10.90;69.40
3418;DHT22;68007;51.312;12.372;2024-03-29T07:25:58;11.00;69.40
3418;DHT22;68007;51.312;12.372;2024-03-29T07:28:26;11.00;69.30
3418;DHT22;68007;51.312;12.372;2024-03-29T07:30:55;11.10;69.40
3418;DHT22;68007;51.312;12.372;2024-03-29T07:33:24;11.10;69.40
3418;DHT22;68007;51.312;12.372;2024-03-29T07:35:52;11.10;69.50
3418;DHT22;68007;51.312;12.372;2024-03-29T07:38:20;11.10;69.50
3418;DHT22;68007;51.312;12.372;2024-03-29T07:40:48;11.10;69.50
3418;DHT22;68007;51.312;12.372;2024-03-29T07:43:15;11.10;69.50
3418;DHT22;68007;51.312;12.372;2024-03-29T07:45:43;11.10;69.50
3418;DHT22;68007;51.312;12.372;2024-03-29T07:48:13;11.10;69.30
3418;DHT22;68007;51.312;12.372;2024-03-29T07:50:41;11.10;69.30
3418;DHT22;68007;51.312;12.372;2024-03-29T07:53:08;11.10;68.90
3418;DHT22;68007;51.312;12.372;2024-03-29T07:55:38;11.00;69.20
3418;DHT22;68007;51.312;12.372;2024-03-29T07:58:07;11.00;69.60
3418;DHT22;68007;51.312;12.372;2024-03-29T08:00:39;11.00;69.50
3418;DHT22;68007;51.312;12.372;2024-03-29T08:03:07;11.00;69.60
3418;DHT22;68007;51.312;12.372;2024-03-29T08:05:36;11.00;69.80
3418;DHT22;68007;51.312;12.372;2024-03-29T08:08:04;11.00;69.90
3418;DHT22;68007;51.312;12.372;2024-03-29T08:10:32;11.00;70.00
3418;DHT22;68007;51.312;12.372;2024-03-29T08:13:00;11.00;70.40
3418;DHT22;68007;51.312;12.372;2024-03-29T08:15:27;11.00;70.60
3418;DHT22;68007;51.312;12.372;2024-03-29T08:17:55;11.00;70.80
3418;DHT22;68007;51.312;12.372;2024-03-29T08:20:22;11.10;70.90
3418;DHT22;68007;51.312;12.372;2024-03-29T08:22:59;11.20;71.20
3418;DHT22;68007;51.312;12.372;2024-03-29T08:25:27;11.20;71.10
3418;DHT22;68007;51.312;12.372;2024-03-29T08:27:54;11.20;71.40
3418;DHT22;68007;51.312;12.372;2024-03-29T08:30:25;11.30;71.50
3418;DHT22;68007;51.312;12.372;2024-03-29T08:32:52;11.20;71.60
3418;DHT22;68007;51.312;12.372;2024-03-29T08:35:20;11.30;71.70
3418;DHT22;68007;51.312;12.372;2024-03-29T08:37:47;11.30;71.80
3418;DHT22;68007;51.312;12.372;2024-03-29T08:40:17;11.40;71.90
3418;DHT22;68007;51.312;12.372;2024-03-29T08:42:45;11.40;71.80
3418;DHT22;68007;51.312;12.372;2024-03-29T08:45:13;11.40;71.80
3418;DHT22;68007;51.312;12.372;2024-03-29T08:47:40;11.40;71.60
3418;DHT22;68007;51.312;12.372;2024-03-29T08:50:08;11.50;71.80
3418;DHT22;68007;51.312;12.372;2024-03-29T08:52:36;11.50;71.70
3418;DHT22;68007;51.312;12.372;2024-03-29T08:55:05;11.60;72.00
3418;DHT22;68007;51.312;12.372;2024-03-29T08:57:34;11.60;71.90
3418;DHT22;68007;51.312;12.372;2024-03-29T09:00:02;11.60;72.10
3418;DHT22;68007;51.312;12.372;2024-03-29T09:02:31;11.60;72.10
3418;DHT22;68007;51.312;12.372;2024-03-29T09:04:58;11.60;72.40
3418;DHT22;68007;51.312;12.372;2024-03-29T09:07:26;11.60;72.30
3418;DHT22;68007;51.312;12.372;2024-03-29T09:09:53;11.50;72.40
3418;DHT22;68007;51.312;12.372;2024-03-29T09:12:21;11.60;72.50
3418;DHT22;68007;51.312;12.372;2024-03-29T09:14:50;11.60;72.70
3418;DHT22;68007;51.312;12.372;2024-03-29T09:17:19;11.60;72.60
3418;DHT22;68007;51.312;12.372;2024-03-29T09:19:49;11.60;72.60
3418;DHT22;68007;51.312;12.372;2024-03-29T09:22:18;11.60;72.50
3418;DHT22;68007;51.312;12.372;2024-03-29T09:24:45;11.70;72.50
3418;DHT22;68007;51.312;12.372;2024-03-29T09:27:13;11.70;72.30
3418;DHT22;68007;51.312;12.372;2024-03-29T09:29:41;11.80;72.20
3418;DHT22;68007;51.312;12.372;2024-03-29T09:32:10;11.80;72.10
3418;DHT22;68007;51.312;12.372;2024-03-29T09:34:38;11.80;71.90
3418;DHT22;68007;51.312;12.372;2024-03-29T09:37:05;11.90;71.70
3418;DHT22;68007;51.312;12.372;2024-03-29T09:39:33;11.90;71.80
3418;DHT22;68007;51.312;12.372;2024-03-29T09:42:02;12.00;71.80
3418;DHT22;68007;51.312;12.372;2024-03-29T09:44:32;12.00;71.80
3418;DHT22;68007;51.312;12.372;2024-03-29T09:47:03;12.00;71.60
3418;DHT22;68007;51.312;12.372;2024-03-29T09:49:33;12.10;71.70
3418;DHT22;68007;51.312;12.372;2024-03-29T09:52:01;12.10;71.70
3418;DHT22;68007;51.312;12.372;2024-03-29T09:54:29;12.10;71.60
3418;DHT22;68007;51.312;12.372;2024-03-29T09:56:57;12.10;71.50
3418;DHT22;68007;51.312;12.372;2024-03-29T09:59:25;12.20;71.70
3418;DHT22;68007;51.312;12.372;2024-03-29T10:01:54;12.20;71.80
3418;DHT22;68007;51.312;12.372;2024-03-29T10:04:24;12.10;71.70
3418;DHT22;68007;51.312;12.372;2024-03-29T10:06:53;12.20;71.90
3418;DHT22;68007;51.312;12.372;2024-03-29T10:09:22;12.20;72.70
3418;DHT22;68007;51.312;12.372;2024-03-29T10:11:53;12.20;72.10
3418;DHT22;68007;51.312;12.372;2024-03-29T10:14:21;12.20;72.90
3418;DHT22;68007;51.312;12.372;2024-03-29T10:16:51;12.20;73.20
3418;DHT22;68007;51.312;12.372;2024-03-29T10:19:19;12.20;72.50
3418;DHT22;68007;51.312;12.372;2024-03-29T10:21:47;12.20;72.50
3418;DHT22;68007;51.312;12.372;2024-03-29T10:24:16;12.30;72.50
3418;DHT22;68007;51.312;12.372;2024-03-29T10:26:44;12.30;72.90
3418;DHT22;68007;51.312;12.372;2024-03-29T10:29:11;12.30;72.90
3418;DHT22;68007;51.312;12.372;2024-03-29T10:31:39;12.30;72.50
3418;DHT22;68007;51.312;12.372;2024-03-29T10:34:06;12.30;72.40
3418;DHT22;68007;51.312;12.372;2024-03-29T10:36:35;12.40;72.50
3418;DHT22;68007;51.312;12.372;2024-03-29T10:39:09;12.40;72.60
3418;DHT22;68007;51.312;12.372;2024-03-29T10:41:40;12.40;72.40
3418;DHT22;68007;51.312;12.372;2024-03-29T10:44:09;12.40;72.40
3418;DHT22;68007;51.312;12.372;2024-03-29T10:46:38;12.40;72.30
3418;DHT22;68007;51.312;12.372;2024-03-29T10:49:08;12.40;72.20
3418;DHT22;68007;51.312;12.372;2024-03-29T10:51:38;12.40;72.10
3418;DHT22;68007;51.312;12.372;2024-03-29T10:54:08;12.50;72.00
3418;DHT22;68007;51.312;12.372;2024-03-29T10:56:36;12.50;72.00
3418;DHT22;68007;51.312;12.372;2024-03-29T10:59:12;12.50;71.80
3418;DHT22;68007;51.312;12.372;2024-03-29T11:01:43;12.50;71.80
3418;DHT22;68007;51.312;12.372;2024-03-29T11:04:17;12.50;71.80
3418;DHT22;68007;51.312;12.372;2024-03-29T11:06:49;12.50;71.70
3418;DHT22;68007;51.312;12.372;2024-03-29T11:09:20;12.50;71.70
3418;DHT22;68007;51.312;12.372;2024-03-29T11:11:51;12.60;71.70
3418;DHT22;68007;51.312;12.372;2024-03-29T11:14:39;12.60;71.60
3418;DHT22;68007;51.312;12.372;2024-03-29T11:17:09;12.70;71.60
3418;DHT22;68007;51.312;12.372;2024-03-29T11:19:39;12.60;71.50
3418;DHT22;68007;51.312;12.372;2024-03-29T11:22:07;12.70;71.60
3418;DHT22;68007;51.312;12.372;2024-03-29T11:24:35;12.70;71.60
3418;DHT22;68007;51.312;12.372;2024-03-29T11:27:08;12.70;71.50
3418;DHT22;68007;51.312;12.372;2024-03-29T11:29:41;12.80;71.50
3418;DHT22;68007;51.312;12.372;2024-03-29T11:32:11;12.80;71.60
3418;DHT22;68007;51.312;12.372;2024-03-29T11:34:44;12.80;71.60
3418;DHT22;68007;51.312;12.372;2024-03-29T11:37:12;12.90;71.60
3418;DHT22;68007;51.312;12.372;2024-03-29T11:39:40;12.90;71.50
3418;DHT22;68007;51.312;12.372;2024-03-29T11:42:14;12.90;71.60
3418;DHT22;68007;51.312;12.372;2024-03-29T11:44:42;12.90;71.70
3418;DHT22;68007;51.312;12.372;2024-03-29T11:47:11;13.00;72.20
3418;DHT22;68007;51.312;12.372;2024-03-29T11:49:40;13.00;72.10
3418;DHT22;68007;51.312;12.372;2024-03-29T11:52:07;13.00;71.70
3418;DHT22;68007;51.312;12.372;2024-03-29T11:54:37;13.00;71.60
3418;DHT22;68007;51.312;12.372;2024-03-29T11:57:05;13.10;71.40
3418;DHT22;68007;51.312;12.372;2024-03-29T11:59:31;13.10;71.10
3418;DHT22;68007;51.312;12.372;2024-03-29T12:02:01;13.10;70.60
3418;DHT22;68007;51.312;12.372;2024-03-29T12:04:29;13.10;70.00
3418;DHT22;68007;51.312;12.372;2024-03-29T12:06:57;13.20;69.90
3418;DHT22;68007;51.312;12.372;2024-03-29T12:09:24;13.30;69.80
3418;DHT22;68007;51.312;12.372;2024-03-29T12:11:52;13.30;70.00
3418;DHT22;68007;51.312;12.372;2024-03-29T12:14:19;13.40;70.00
3418;DHT22;68007;51.312;12.372;2024-03-29T12:16:48;13.50;70.30
3418;DHT22;68007;51.312;12.372;2024-03-29T12:19:24;13.50;70.80
3418;DHT22;68007;51.312;12.372;2024-03-29T12:21:54;13.60;71.50
3418;DHT22;68007;51.312;12.372;2024-03-29T12:24:22;13.60;72.20
3418;DHT22;68007;51.312;12.372;2024-03-29T12:26:50;13.70;73.00
3418;DHT22;68007;51.312;12.372;2024-03-29T12:29:18;13.70;73.60
3418;DHT22;68007;51.312;12.372;2024-03-29T12:31:56;13.70;73.90
3418;DHT22;68007;51.312;12.372;2024-03-29T12:34:25;13.80;74.20
3418;DHT22;68007;51.312;12.372;2024-03-29T12:36:52;13.80;74.20
3418;DHT22;68007;51.312;12.372;2024-03-29T12:39:20;13.80;74.90
3418;DHT22;68007;51.312;12.372;2024-03-29T12:41:48;14.00;75.50
3418;DHT22;68007;51.312;12.372;2024-03-29T12:44:16;14.10;76.00
3418;DHT22;68007;51.312;12.372;2024-03-29T12:46:44;14.20;75.80
3418;DHT22;68007;51.312;12.372;2024-03-29T12:49:12;14.30;75.70
3418;DHT22;68007;51.312;12.372;2024-03-29T12:51:44;14.40;75.80
3418;DHT22;68007;51.312;12.372;2024-03-29T12:54:11;14.50;75.40
3418;DHT22;68007;51.312;12.372;2024-03-29T12:56:40;14.50;75.30
3418;DHT22;68007;51.312;12.372;2024-03-29T12:59:08;14.50;75.40
3418;DHT22;68007;51.312;12.372;2024-03-29T13:01:36;14.60;75.90
3418;DHT22;68007;51.312;12.372;2024-03-29T13:04:04;14.60;76.00
3418;DHT22;68007;51.312;12.372;2024-03-29T13:06:32;14.60;76.60
3418;DHT22;68007;51.312;12.372;2024-03-29T13:09:01;14.60;77.20
3418;DHT22;68007;51.312;12.372;2024-03-29T13:11:29;14.70;76.60
3418;DHT22;68007;51.312;12.372;2024-03-29T13:13:56;14.70;76.70
3418;DHT22;68007;51.312;12.372;2024-03-29T13:16:24;14.70;77.20
3418;DHT22;68007;51.312;12.372;2024-03-29T13:18:51;14.80;77.00
3418;DHT22;68007;51.312;12.372;2024-03-29T13:21:19;14.70;77.60
3418;DHT22;68007;51.312;12.372;2024-03-29T13:23:46;14.70;78.30
3418;DHT22;68007;51.312;12.372;2024-03-29T13:26:15;14.70;77.90
3418;DHT22;68007;51.312;12.372;2024-03-29T13:28:43;14.70;78.00
3418;DHT22;68007;51.312;12.372;2024-03-29T13:31:11;14.80;78.10
3418;DHT22;68007;51.312;12.372;2024-03-29T13:33:38;14.70;78.40
3418;DHT22;68007;51.312;12.372;2024-03-29T13:36:07;14.80;78.60
3418;DHT22;68007;51.312;12.372;2024-03-29T13:38:34;14.80;78.70
3418;DHT22;68007;51.312;12.372;2024-03-29T13:41:03;14.80;78.70
3418;DHT22;68007;51.312;12.372;2024-03-29T13:43:33;14.80;79.10
3418;DHT22;68007;51.312;12.372;2024-03-29T13:46:04;14.90;78.80
3418;DHT22;68007;51.312;12.372;2024-03-29T13:48:33;14.90;79.10
3418;DHT22;68007;51.312;12.372;2024-03-29T13:51:00;15.00;79.10
3418;DHT22;68007;51.312;12.372;2024-03-29T13:53:28;15.00;78.90
3418;DHT22;68007;51.312;12.372;2024-03-29T13:56:01;15.10;78.90
3418;DHT22;68007;51.312;12.372;2024-03-29T13:58:30;15.00;78.90
3418;DHT22;68007;51.312;12.372;2024-03-29T14:00:59;15.10;79.10
3418;DHT22;68007;51.312;12.372;2024-03-29T14:03:27;15.10;79.20
3418;DHT22;68007;51.312;12.372;2024-03-29T14:05:55;15.10;79.20
3418;DHT22;68007;51.312;12.372;2024-03-29T14:08:23;15.20;79.20
3418;DHT22;68007;51.312;12.372;2024-03-29T14:10:51;15.20;79.30
3418;DHT22;68007;51.312;12.372;2024-03-29T14:13:19;15.20;79.30
3418;DHT22;68007;51.312;12.372;2024-03-29T14:15:47;15.20;79.30
3418;DHT22;68007;51.312;12.372;2024-03-29T14:18:15;15.30;79.30
3418;DHT22;68007;51.312;12.372;2024-03-29T14:20:43;15.30;79.30
3418;DHT22;68007;51.312;12.372;2024-03-29T14:23:11;15.30;79.30
3418;DHT22;68007;51.312;12.372;2024-03-29T14:25:41;15.30;79.30
3418;DHT22;68007;51.312;12.372;2024-03-29T14:28:08;15.30;79.10
3418;DHT22;68007;51.312;12.372;2024-03-29T14:30:36;15.30;79.20
3418;DHT22;68007;51.312;12.372;2024-03-29T14:33:04;15.30;79.10
3418;DHT22;68007;51.312;12.372;2024-03-29T14:35:35;15.30;78.90
3418;DHT22;68007;51.312;12.372;2024-03-29T14:38:03;15.40;79.00
3418;DHT22;68007;51.312;12.372;2024-03-29T14:40:31;15.40;79.10
3418;DHT22;68007;51.312;12.372;2024-03-29T14:42:58;15.40;79.00
3418;DHT22;68007;51.312;12.372;2024-03-29T14:45:28;15.40;79.10
3418;DHT22;68007;51.312;12.372;2024-03-29T14:47:55;15.40;79.00
3418;DHT22;68007;51.312;12.372;2024-03-29T14:50:23;15.40;79.10
3418;DHT22;68007;51.312;12.372;2024-03-29T14:52:51;15.50;79.00
3418;DHT22;68007;51.312;12.372;2024-03-29T14:55:19;15.50;79.70
3418;DHT22;68007;51.312;12.372;2024-03-29T14:57:46;15.50;79.10
3418;DHT22;68007;51.312;12.372;2024-03-29T15:00:15;15.50;79.20
3418;DHT22;68007;51.312;12.372;2024-03-29T15:02:43;15.50;79.50
3418;DHT22;68007;51.312;12.372;2024-03-29T15:05:11;15.50;79.90
3418;DHT22;68007;51.312;12.372;2024-03-29T15:07:39;15.50;79.80
3418;DHT22;68007;51.312;12.372;2024-03-29T15:10:08;15.50;79.80
3418;DHT22;68007;51.312;12.372;2024-03-29T15:12:37;15.60;79.80
3418;DHT22;68007;51.312;12.372;2024-03-29T15:15:06;15.60;79.80
3418;DHT22;68007;51.312;12.372;2024-03-29T15:17:34;15.60;80.00
3418;DHT22;68007;51.312;12.372;2024-03-29T15:20:01;15.60;80.10
3418;DHT22;68007;51.312;12.372;2024-03-29T15:22:31;15.50;80.10
3418;DHT22;68007;51.312;12.372;2024-03-29T15:24:59;15.60;80.00
3418;DHT22;68007;51.312;12.372;2024-03-29T15:27:28;15.60;80.20
3418;DHT22;68007;51.312;12.372;2024-03-29T15:30:22;15.60;80.10
3418;DHT22;68007;51.312;12.372;2024-03-29T15:32:48;15.60;80.30
3418;DHT22;68007;51.312;12.372;2024-03-29T15:35:16;15.60;80.40
3418;DHT22;68007;51.312;12.372;2024-03-29T15:37:43;15.60;80.30